Main page
METAR-TAF:

METAR-TAF

Airports :

Sharjah, United Arab Emirates

Sharjah International Airport

latitude: 25-20N, longitude: 055-31E, elevation: 35 m

Current weather observation

The report was made 30 minutes ago, at 20:00 UTC
Wind 4 kt from the East
Temperature 29°C
Humidity 55%
Pressure 1008 hPa
Visibility 10 km or more
no clouds below 1500 m and no cumulonimbus

METAR: OMSJ 302000Z 08004KT CAVOK 29/19 Q1008

Time: 00:30 (20:30 UTC)

Forecast

The report was made 3 hours and 34 minutes ago, at 16:56 UTC
Forecast valid from 30 at 18 UTC to 02 at 00 UTC
Wind 5 kt from the East/Southeast
Visibility: 8000 m
Becoming
from 01 at 03 UTC to 01 at 05 UTC
Wind 10 kt from the South/Southwest
Becoming
from 01 at 07 UTC to 01 at 09 UTC
Wind 17 kt from the West/Northwest
Becoming
from 01 at 15 UTC to 01 at 17 UTC
Wind 2 kt from variable directions

TAF: OMSJ 301656Z 3018/0200 12005KT 8000 NSC BECMG 0103/0105 20010KT BECMG 0107/0109 30017KT BECMG 0115/0117 VRB02KT

Weather observations and forecasts of more than 4000 airports (METAR and TAF reports).

The available stations are represented by yellow and red dots on the map.

Hover mouse over dot to see the name of the station.

Then click to see weather observations and forecasts.

To change the map : click on the green buttons with a black cross to zoom in, on the green button with a dash to zoom out, or on the green arrows for adjacent maps.


METAR-TAF: